Time,TemperatureF,DewpointF,PressureIn,WindDirection,WindDirectionDegrees,WindSpeedMPH,WindSpeedGustMPH,Humidity,HourlyPrecipIn,Conditions,Clouds,dailyrainin,SoftwareType,DateUTC
2013-08-10 00:00:00,71.4,64.2,29.85,NW,317,0.0,3.6,78,0.00,,---,0.00,VWS V14.01,2013-08-10 04:00:00,
2013-08-10 00:01:00,71.4,64.2,29.85,NW,317,0.0,0.0,78,0.00,,---,0.00,VWS V14.01,2013-08-10 04:01:00,
2013-08-10 00:06:00,71.4,64.2,29.85,NW,317,2.7,4.5,78,0.00,,---,0.00,VWS V14.01,2013-08-10 04:06:00,
2013-08-10 00:11:00,71.2,64.0,29.85,NW,317,2.7,3.1,78,0.00,,---,0.00,VWS V14.01,2013-08-10 04:11:00,
2013-08-10 00:16:00,71.2,64.0,29.85,NW,317,2.7,3.1,78,0.00,,---,0.00,VWS V14.01,2013-08-10 04:16:00,
2013-08-10 00:21:00,71.1,63.9,29.85,NW,317,0.0,0.0,78,0.00,,---,0.00,VWS V14.01,2013-08-10 04:21:00,
2013-08-10 00:26:00,71.1,63.9,29.85,NW,317,0.0,0.0,78,0.00,,---,0.00,VWS V14.01,2013-08-10 04:26:00,
2013-08-10 00:31:00,70.9,63.7,29.85,NW,317,0.0,0.0,78,0.00,,---,0.00,VWS V14.01,2013-08-10 04:31:00,
2013-08-10 00:36:00,70.9,63.7,29.85,NW,317,0.0,0.0,78,0.00,,---,0.00,VWS V14.01,2013-08-10 04:36:00,
2013-08-10 00:41:00,70.7,63.5,29.85,NW,317,0.0,0.0,78,0.00,,---,0.00,VWS V14.01,2013-08-10 04:41:00,
2013-08-10 00:47:00,70.7,63.5,29.85,NW,317,0.0,0.0,78,0.00,,---,0.00,VWS V14.01,2013-08-10 04:47:00,
2013-08-10 00:52:00,70.7,63.5,29.88,NW,317,0.0,0.0,78,0.00,,---,0.00,VWS V14.01,2013-08-10 04:52:00,
2013-08-10 00:57:00,70.5,63.3,29.88,NW,317,0.0,0.0,78,0.00,,---,0.00,VWS V14.01,2013-08-10 04:57:00,
2013-08-10 01:02:00,70.5,63.3,29.88,NW,317,0.0,0.0,78,0.00,,---,0.00,VWS V14.01,2013-08-10 05:02:00,
2013-08-10 01:07:00,70.5,63.3,29.88,NW,317,0.0,0.0,78,0.00,,---,0.00,VWS V14.01,2013-08-10 05:07:00,
2013-08-10 01:12:00,70.5,63.3,29.88,NW,317,0.0,0.0,78,0.00,,---,0.00,VWS V14.01,2013-08-10 05:12:00,
2013-08-10 01:17:00,70.3,63.2,29.88,NW,317,0.0,0.0,78,0.00,,---,0.00,VWS V14.01,2013-08-10 05:17:00,
2013-08-10 01:22:00,70.2,63.0,29.88,NW,317,0.0,0.0,78,0.00,,---,0.00,VWS V14.01,2013-08-10 05:22:00,
2013-08-10 01:27:00,70.2,63.0,29.88,NW,317,0.0,0.0,78,0.00,,---,0.00,VWS V14.01,2013-08-10 05:27:00,
2013-08-10 01:32:00,70.0,62.8,29.88,NW,317,0.0,0.0,78,0.00,,---,0.00,VWS V14.01,2013-08-10 05:32:00,
2013-08-10 01:37:00,70.0,62.8,29.88,NW,317,0.0,0.0,78,0.00,,---,0.00,VWS V14.01,2013-08-10 05:37:00,
2013-08-10 01:42:00,70.0,62.8,29.88,NW,317,0.0,0.0,78,0.00,,---,0.00,VWS V14.01,2013-08-10 05:42:00,
2013-08-10 01:47:00,69.8,62.6,29.88,NW,317,0.0,0.0,78,0.00,,---,0.00,VWS V14.01,2013-08-10 05:47:00,
2013-08-10 01:52:00,69.8,62.6,29.88,NW,317,0.0,0.0,78,0.00,,---,0.00,VWS V14.01,2013-08-10 05:52:00,
2013-08-10 01:57:00,69.8,62.6,29.88,NW,317,0.0,0.0,78,0.00,,---,0.00,VWS V14.01,2013-08-10 05:57:00,
2013-08-10 02:02:00,69.6,62.5,29.88,NW,317,0.0,0.0,78,0.00,,---,0.00,VWS V14.01,2013-08-10 06:02:00,
2013-08-10 02:07:00,69.6,62.8,29.88,NW,317,0.0,2.7,79,0.00,,---,0.00,VWS V14.01,2013-08-10 06:07:00,
2013-08-10 02:12:00,69.8,63.0,29.88,NW,317,2.7,5.4,79,0.00,,---,0.00,VWS V14.01,2013-08-10 06:12:00,
2013-08-10 02:17:00,70.0,63.2,29.88,NW,304,0.0,3.1,79,0.00,,---,0.00,VWS V14.01,2013-08-10 06:17:00,
2013-08-10 02:22:00,70.2,63.3,29.88,WNW,287,0.0,5.8,79,0.00,,---,0.00,VWS V14.01,2013-08-10 06:22:00,
2013-08-10 02:27:00,70.2,63.3,29.88,WNW,288,0.0,0.0,79,0.00,,---,0.00,VWS V14.01,2013-08-10 06:27:00,
2013-08-10 02:32:00,70.2,63.3,29.88,WNW,287,2.7,3.1,79,0.00,,---,0.00,VWS V14.01,2013-08-10 06:32:00,
2013-08-10 02:37:00,70.2,63.3,29.88,WNW,288,3.6,4.5,79,0.00,,---,0.00,VWS V14.01,2013-08-10 06:37:00,
2013-08-10 02:42:00,70.2,63.3,29.88,WNW,287,3.1,3.6,79,0.00,,---,0.00,VWS V14.01,2013-08-10 06:42:00,
2013-08-10 02:47:00,70.2,63.3,29.88,NW,322,3.6,4.0,79,0.00,,---,0.00,VWS V14.01,2013-08-10 06:47:00,
2013-08-10 02:52:00,70.0,63.5,29.88,SW,220,0.0,2.7,80,0.00,,---,0.00,VWS V14.01,2013-08-10 06:52:00,
2013-08-10 02:57:00,70.0,63.2,29.88,SW,220,3.1,3.1,79,0.00,,---,0.00,VWS V14.01,2013-08-10 06:57:00,
2013-08-10 03:02:00,69.6,62.8,29.88,SW,220,0.0,2.7,79,0.00,,---,0.00,VWS V14.01,2013-08-10 07:02:00,
2013-08-10 03:07:00,69.4,62.7,29.88,SW,220,0.0,3.1,79,0.00,,---,0.00,VWS V14.01,2013-08-10 07:07:00,
2013-08-10 03:12:00,69.3,62.5,29.88,SW,220,0.0,0.0,79,0.00,,---,0.00,VWS V14.01,2013-08-10 07:12:00,
2013-08-10 03:17:00,69.1,62.3,29.88,SW,220,0.0,3.1,79,0.00,,---,0.00,VWS V14.01,2013-08-10 07:17:00,
2013-08-10 03:22:00,68.9,62.1,29.91,SW,220,0.0,0.0,79,0.00,,---,0.00,VWS V14.01,2013-08-10 07:22:00,
2013-08-10 03:27:00,68.7,62.3,29.91,SW,220,0.0,0.0,80,0.00,,---,0.00,VWS V14.01,2013-08-10 07:27:00,
2013-08-10 03:32:00,68.7,62.3,29.91,SW,221,0.0,0.0,80,0.00,,---,0.00,VWS V14.01,2013-08-10 07:32:00,
2013-08-10 03:37:00,68.7,62.3,29.91,SW,220,0.0,0.0,80,0.00,,---,0.00,VWS V14.01,2013-08-10 07:37:00,
2013-08-10 03:42:00,68.7,62.3,29.91,SW,220,0.0,0.0,80,0.00,,---,0.00,VWS V14.01,2013-08-10 07:42:00,
2013-08-10 03:47:00,68.5,62.1,29.91,SW,221,0.0,2.7,80,0.00,,---,0.00,VWS V14.01,2013-08-10 07:47:00,
2013-08-10 03:52:00,68.5,62.1,29.91,SW,220,0.0,3.6,80,0.00,,---,0.00,VWS V14.01,2013-08-10 07:52:00,
2013-08-10 03:57:00,68.4,62.0,29.91,SW,220,0.0,0.0,80,0.00,,---,0.00,VWS V14.01,2013-08-10 07:57:00,
2013-08-10 04:02:00,68.4,62.0,29.91,SW,220,0.0,0.0,80,0.00,,---,0.00,VWS V14.01,2013-08-10 08:02:00,
2013-08-10 04:08:00,68.4,62.0,29.91,SW,220,0.0,0.0,80,0.00,,---,0.00,VWS V14.01,2013-08-10 08:08:00,
2013-08-10 04:13:00,68.4,62.0,29.91,SW,220,0.0,0.0,80,0.00,,---,0.00,VWS V14.01,2013-08-10 08:13:00,
2013-08-10 04:18:00,68.4,62.0,29.91,SW,221,0.0,0.0,80,0.00,,---,0.00,VWS V14.01,2013-08-10 08:18:00,
2013-08-10 04:23:00,68.4,62.0,29.91,SW,220,0.0,0.0,80,0.00,,---,0.00,VWS V14.01,2013-08-10 08:23:00,
2013-08-10 04:28:00,68.4,62.0,29.91,SW,220,0.0,0.0,80,0.00,,---,0.00,VWS V14.01,2013-08-10 08:28:00,
2013-08-10 04:33:00,68.4,62.0,29.91,SW,220,0.0,0.0,80,0.00,,---,0.00,VWS V14.01,2013-08-10 08:33:00,
2013-08-10 04:38:00,68.2,61.8,29.91,SW,220,0.0,0.0,80,0.00,,---,0.00,VWS V14.01,2013-08-10 08:38:00,
2013-08-10 04:43:00,68.2,61.8,29.91,SW,220,0.0,0.0,80,0.00,,---,0.00,VWS V14.01,2013-08-10 08:43:00,
2013-08-10 04:48:00,68.0,61.6,29.91,SW,221,0.0,2.7,80,0.00,,---,0.00,VWS V14.01,2013-08-10 08:48:00,
2013-08-10 04:53:00,68.0,61.6,29.91,SW,221,0.0,0.0,80,0.00,,---,0.00,VWS V14.01,2013-08-10 08:53:00,
2013-08-10 04:58:00,68.0,62.0,29.91,SW,220,0.0,0.0,81,0.00,,---,0.00,VWS V14.01,2013-08-10 08:58:00,
2013-08-10 05:03:00,68.0,62.0,29.91,SW,221,0.0,2.7,81,0.00,,---,0.00,VWS V14.01,2013-08-10 09:03:00,
2013-08-10 05:08:00,67.8,61.4,29.94,SW,221,0.0,0.0,80,0.00,,---,0.00,VWS V14.01,2013-08-10 09:08:00,
2013-08-10 05:13:00,67.8,61.4,29.94,SW,221,0.0,0.0,80,0.00,,---,0.00,VWS V14.01,2013-08-10 09:13:00,
2013-08-10 05:18:00,67.8,61.8,29.94,SW,220,0.0,0.0,81,0.00,,---,0.00,VWS V14.01,2013-08-10 09:18:00,
2013-08-10 05:23:00,67.6,61.6,29.94,SW,220,0.0,0.0,81,0.00,,---,0.00,VWS V14.01,2013-08-10 09:23:00,
2013-08-10 05:28:00,67.6,61.6,29.94,SW,220,0.0,0.0,81,0.00,,---,0.00,VWS V14.01,2013-08-10 09:28:00,
2013-08-10 05:33:00,67.5,61.4,29.94,SW,220,0.0,3.1,81,0.00,,---,0.00,VWS V14.01,2013-08-10 09:33:00,
2013-08-10 05:38:00,67.5,61.1,29.94,SW,220,0.0,2.7,80,0.00,,---,0.00,VWS V14.01,2013-08-10 09:38:00,
2013-08-10 05:43:00,67.3,60.9,29.94,SW,220,0.0,0.0,80,0.00,,---,0.00,VWS V14.01,2013-08-10 09:43:00,
2013-08-10 05:48:00,67.1,60.7,29.94,SW,220,0.0,0.0,80,0.00,,---,0.00,VWS V14.01,2013-08-10 09:48:00,
2013-08-10 05:53:00,66.9,60.9,29.94,SW,220,0.0,0.0,81,0.00,,---,0.00,VWS V14.01,2013-08-10 09:53:00,
2013-08-10 05:58:00,66.9,60.9,29.94,SW,220,0.0,0.0,81,0.00,,---,0.00,VWS V14.01,2013-08-10 09:58:00,
2013-08-10 06:03:00,66.9,60.9,29.94,SW,220,0.0,3.6,81,0.00,,---,0.00,VWS V14.01,2013-08-10 10:03:00,
2013-08-10 06:08:00,66.7,60.7,29.94,SW,221,0.0,0.0,81,0.00,,---,0.00,VWS V14.01,2013-08-10 10:08:00,
2013-08-10 06:13:00,66.7,60.7,29.94,SW,221,0.0,0.0,81,0.00,,---,0.00,VWS V14.01,2013-08-10 10:13:00,
2013-08-10 06:18:00,66.7,60.7,29.94,SW,221,0.0,0.0,81,0.00,,---,0.00,VWS V14.01,2013-08-10 10:18:00,
2013-08-10 06:23:00,66.6,60.6,29.94,SW,220,0.0,0.0,81,0.00,,---,0.00,VWS V14.01,2013-08-10 10:23:00,
2013-08-10 06:28:00,66.6,60.6,29.94,SW,221,0.0,0.0,81,0.00,,---,0.00,VWS V14.01,2013-08-10 10:28:00,
2013-08-10 06:33:00,66.6,60.6,29.94,SW,220,0.0,0.0,81,0.00,,---,0.00,VWS V14.01,2013-08-10 10:33:00,
2013-08-10 06:38:00,66.6,60.6,29.94,SW,220,0.0,0.0,81,0.00,,---,0.00,VWS V14.01,2013-08-10 10:38:00,
2013-08-10 06:43:00,66.6,60.6,29.94,SW,220,0.0,0.0,81,0.00,,---,0.00,VWS V14.01,2013-08-10 10:43:00,
2013-08-10 06:48:00,66.6,60.6,29.94,SW,221,0.0,0.0,81,0.00,,---,0.00,VWS V14.01,2013-08-10 10:48:00,
2013-08-10 06:53:00,66.6,60.6,29.97,SW,221,0.0,0.0,81,0.00,,---,0.00,VWS V14.01,2013-08-10 10:53:00,
2013-08-10 06:58:00,66.6,60.6,29.97,SW,220,0.0,0.0,81,0.00,,---,0.00,VWS V14.01,2013-08-10 10:58:00,
2013-08-10 07:03:00,66.6,60.6,29.97,SW,221,2.7,2.7,81,0.00,,---,0.00,VWS V14.01,2013-08-10 11:03:00,
2013-08-10 07:08:00,66.7,60.7,29.97,SW,220,0.0,0.0,81,0.00,,---,0.00,VWS V14.01,2013-08-10 11:08:00,
2013-08-10 07:13:00,66.7,60.7,29.97,SW,221,0.0,0.0,81,0.00,,---,0.00,VWS V14.01,2013-08-10 11:13:00,
2013-08-10 07:18:00,66.7,60.7,29.97,SW,220,0.0,0.0,81,0.00,,---,0.00,VWS V14.01,2013-08-10 11:18:00,
2013-08-10 07:23:00,66.7,60.7,29.97,SW,220,0.0,0.0,81,0.00,,---,0.00,VWS V14.01,2013-08-10 11:23:00,
2013-08-10 07:28:00,66.9,60.9,29.97,SW,220,0.0,0.0,81,0.00,,---,0.00,VWS V14.01,2013-08-10 11:28:00,
2013-08-10 07:33:00,66.9,60.9,29.97,SW,220,0.0,0.0,81,0.00,,---,0.00,VWS V14.01,2013-08-10 11:33:00,
2013-08-10 07:38:00,66.9,60.9,29.97,SW,220,3.1,3.1,81,0.00,,---,0.00,VWS V14.01,2013-08-10 11:38:00,
2013-08-10 07:43:00,66.9,60.9,29.97,SW,221,3.1,3.6,81,0.00,,---,0.00,VWS V14.01,2013-08-10 11:43:00,
2013-08-10 07:49:00,67.1,61.1,29.97,SW,221,3.6,3.6,81,0.00,,---,0.00,VWS V14.01,2013-08-10 11:49:00,
2013-08-10 07:54:00,67.3,61.3,29.97,SW,220,0.0,2.7,81,0.00,,---,0.00,VWS V14.01,2013-08-10 11:54:00,
2013-08-10 07:59:00,67.3,61.3,29.97,SW,220,0.0,3.1,81,0.00,,---,0.00,VWS V14.01,2013-08-10 11:59:00,
2013-08-10 08:04:00,67.5,61.4,29.97,SW,220,0.0,3.6,81,0.00,,---,0.00,VWS V14.01,2013-08-10 12:04:00,
2013-08-10 08:09:00,67.6,61.6,29.97,SW,220,0.0,2.7,81,0.00,,---,0.00,VWS V14.01,2013-08-10 12:09:00,
2013-08-10 08:14:00,67.8,61.8,29.97,SW,221,0.0,4.5,81,0.00,,---,0.00,VWS V14.01,2013-08-10 12:14:00,
2013-08-10 08:19:00,68.0,62.0,29.97,WSW,241,0.0,5.4,81,0.00,,---,0.00,VWS V14.01,2013-08-10 12:19:00,
2013-08-10 08:24:00,68.0,61.6,29.97,ENE,58,3.1,4.9,80,0.00,,---,0.00,VWS V14.01,2013-08-10 12:24:00,
2013-08-10 08:29:00,68.2,61.8,29.97,WNW,288,2.7,4.9,80,0.00,,---,0.00,VWS V14.01,2013-08-10 12:29:00,
2013-08-10 08:34:00,68.2,61.8,29.97,WNW,288,0.0,3.6,80,0.00,,---,0.00,VWS V14.01,2013-08-10 12:34:00,
2013-08-10 08:39:00,68.4,61.6,29.97,WNW,289,0.0,4.0,79,0.00,,---,0.00,VWS V14.01,2013-08-10 12:39:00,
2013-08-10 08:44:00,68.4,61.2,29.97,WNW,282,3.1,5.8,78,0.00,,---,0.00,VWS V14.01,2013-08-10 12:44:00,
2013-08-10 08:49:00,68.4,60.9,29.97,West,266,2.7,6.7,77,0.00,,---,0.00,VWS V14.01,2013-08-10 12:49:00,
2013-08-10 08:54:00,68.5,60.3,29.97,West,268,0.0,4.5,75,0.00,,---,0.00,VWS V14.01,2013-08-10 12:54:00,
2013-08-10 08:59:00,68.9,59.9,29.97,WNW,294,4.9,6.3,73,0.00,,---,0.00,VWS V14.01,2013-08-10 12:59:00,
2013-08-10 09:04:00,69.1,59.3,29.97,WNW,294,0.0,4.5,71,0.00,,---,0.00,VWS V14.01,2013-08-10 13:04:00,
2013-08-10 09:09:00,69.3,59.1,29.97,West,273,0.0,6.3,70,0.00,,---,0.00,VWS V14.01,2013-08-10 13:09:00,
2013-08-10 09:14:00,69.4,58.0,29.97,WSW,250,4.0,9.2,67,0.00,,---,0.00,VWS V14.01,2013-08-10 13:14:00,
2013-08-10 09:19:00,69.6,57.3,29.97,WSW,250,3.1,4.5,65,0.00,,---,0.00,VWS V14.01,2013-08-10 13:19:00,
2013-08-10 09:24:00,69.8,57.1,29.97,West,272,2.7,5.4,64,0.00,,---,0.00,VWS V14.01,2013-08-10 13:24:00,
2013-08-10 09:29:00,70.0,55.5,29.97,WNW,287,4.5,7.4,60,0.00,,---,0.00,VWS V14.01,2013-08-10 13:29:00,
2013-08-10 09:34:00,70.2,54.2,29.97,West,268,4.9,9.2,57,0.00,,---,0.00,VWS V14.01,2013-08-10 13:34:00,
2013-08-10 09:39:00,70.3,52.4,29.97,West,276,0.0,9.2,53,0.00,,---,0.00,VWS V14.01,2013-08-10 13:39:00,
2013-08-10 09:44:00,70.5,50.5,29.97,NE,52,3.6,6.3,49,0.00,,---,0.00,VWS V14.01,2013-08-10 13:44:00,
2013-08-10 09:49:00,70.7,48.9,29.97,West,274,2.7,6.3,46,0.00,,---,0.00,VWS V14.01,2013-08-10 13:49:00,
2013-08-10 09:54:00,71.1,49.3,29.97,West,271,4.0,9.2,46,0.00,,---,0.00,VWS V14.01,2013-08-10 13:54:00,
2013-08-10 09:59:00,71.1,49.3,29.97,West,266,3.6,8.7,46,0.00,,---,0.00,VWS V14.01,2013-08-10 13:59:00,
2013-08-10 10:04:00,71.2,49.4,29.97,West,275,2.7,8.3,46,0.00,,---,0.00,VWS V14.01,2013-08-10 14:04:00,
2013-08-10 10:09:00,71.2,48.2,29.97,WNW,282,3.6,5.8,44,0.00,,---,0.00,VWS V14.01,2013-08-10 14:09:00,
2013-08-10 10:14:00,71.4,47.2,29.97,WSW,243,2.7,9.6,42,0.00,,---,0.00,VWS V14.01,2013-08-10 14:14:00,
2013-08-10 10:19:00,71.4,46.5,29.97,WNW,282,2.7,8.3,41,0.00,,---,0.00,VWS V14.01,2013-08-10 14:19:00,
2013-08-10 10:24:00,71.8,46.8,29.97,SW,214,3.1,6.7,41,0.00,,---,0.00,VWS V14.01,2013-08-10 14:24:00,
2013-08-10 10:29:00,72.1,47.2,29.97,WSW,248,3.6,6.7,41,0.00,,---,0.00,VWS V14.01,2013-08-10 14:29:00,
2013-08-10 10:34:00,72.5,46.8,29.97,North,4,4.5,6.7,40,0.00,,---,0.00,VWS V14.01,2013-08-10 14:34:00,
2013-08-10 10:39:00,72.7,44.2,29.97,NW,309,4.5,7.8,36,0.00,,---,0.00,VWS V14.01,2013-08-10 14:39:00,
2013-08-10 10:44:00,73.0,43.0,29.97,West,273,5.8,8.7,34,0.00,,---,0.00,VWS V14.01,2013-08-10 14:44:00,
2013-08-10 10:49:00,73.2,43.2,29.97,NNE,24,3.6,4.5,34,0.00,,---,0.00,VWS V14.01,2013-08-10 14:49:00,
2013-08-10 10:55:00,73.2,43.2,29.97,WSW,258,0.0,4.5,34,0.00,,---,0.00,VWS V14.01,2013-08-10 14:55:00,
2013-08-10 11:00:00,73.2,43.2,29.97,West,266,0.0,5.4,34,0.00,,---,0.00,VWS V14.01,2013-08-10 15:00:00,
2013-08-10 11:05:00,73.4,41.8,29.97,WSW,244,3.6,8.3,32,0.00,,---,0.00,VWS V14.01,2013-08-10 15:05:00,
2013-08-10 11:10:00,74.1,43.2,29.97,WNW,283,0.0,0.0,33,0.00,,---,0.00,VWS V14.01,2013-08-10 15:10:00,
2013-08-10 11:15:00,75.2,44.2,29.97,West,267,0.0,0.0,33,0.00,,---,0.00,VWS V14.01,2013-08-10 15:15:00,
2013-08-10 11:20:00,75.7,42.1,29.97,NNE,30,4.5,5.4,30,0.00,,---,0.00,VWS V14.01,2013-08-10 15:20:00,
2013-08-10 11:25:00,76.3,40.8,29.97,ENE,58,6.3,7.8,28,0.00,,---,0.00,VWS V14.01,2013-08-10 15:25:00,
2013-08-10 11:30:00,76.8,39.4,29.97,NW,322,0.0,0.0,26,0.00,,---,0.00,VWS V14.01,2013-08-10 15:30:00,
2013-08-10 11:35:00,77.4,42.7,29.97,North,0,2.7,2.7,29,0.00,,---,0.00,VWS V14.01,2013-08-10 15:35:00,
2013-08-10 11:40:00,78.1,43.3,29.97,WSW,253,0.0,0.0,29,0.00,,---,0.00,VWS V14.01,2013-08-10 15:40:00,
2013-08-10 11:45:00,78.4,38.7,29.97,NE,37,4.9,4.9,24,0.00,,---,0.00,VWS V14.01,2013-08-10 15:45:00,
2013-08-10 11:50:00,78.6,37.8,29.97,West,281,5.4,5.8,23,0.00,,---,0.00,VWS V14.01,2013-08-10 15:50:00,
2013-08-10 11:55:00,78.4,36.5,29.97,WSW,249,4.9,6.7,22,0.00,,---,0.00,VWS V14.01,2013-08-10 15:55:00,
2013-08-10 12:00:00,78.6,36.6,29.97,West,266,10.1,10.1,22,0.00,,---,0.00,VWS V14.01,2013-08-10 16:00:00,
2013-08-10 12:05:00,78.8,36.8,29.97,West,280,2.7,3.1,22,0.00,,---,0.00,VWS V14.01,2013-08-10 16:05:00,
2013-08-10 12:10:00,79.2,38.2,29.97,NNE,16,0.0,0.0,23,0.00,,---,0.00,VWS V14.01,2013-08-10 16:10:00,
2013-08-10 12:15:00,79.0,36.9,29.97,WSW,246,5.4,7.4,22,0.00,,---,0.00,VWS V14.01,2013-08-10 16:15:00,
2013-08-10 12:20:00,79.0,35.8,29.97,West,278,10.5,10.5,21,0.00,,---,0.00,VWS V14.01,2013-08-10 16:20:00,
2013-08-10 12:25:00,79.2,34.7,29.97,West,260,6.7,7.8,20,0.00,,---,0.00,VWS V14.01,2013-08-10 16:25:00,
2013-08-10 12:30:00,78.8,34.4,29.97,WNW,298,3.1,4.0,20,0.00,,---,0.00,VWS V14.01,2013-08-10 16:30:00,
2013-08-10 12:35:00,78.3,35.2,29.97,NW,307,3.1,6.7,21,0.00,,---,0.00,VWS V14.01,2013-08-10 16:35:00,
2013-08-10 12:40:00,77.7,34.7,29.97,SW,236,7.8,7.8,21,0.00,,---,0.00,VWS V14.01,2013-08-10 16:40:00,
2013-08-10 12:45:00,77.2,34.3,29.97,North,351,4.0,4.5,21,0.00,,---,0.00,VWS V14.01,2013-08-10 16:45:00,
2013-08-10 12:50:00,77.9,34.9,29.97,West,274,0.0,3.1,21,0.00,,---,0.00,VWS V14.01,2013-08-10 16:50:00,
2013-08-10 12:55:00,78.4,35.3,29.97,WNW,290,0.0,5.8,21,0.00,,---,0.00,VWS V14.01,2013-08-10 16:55:00,
2013-08-10 13:00:00,79.7,35.1,29.97,West,270,4.5,6.9,20,0.00,,---,0.00,VWS V14.01,2013-08-10 17:00:00,
2013-08-10 13:05:00,80.1,35.4,29.97,SW,218,4.0,6.7,20,0.00,,---,0.00,VWS V14.01,2013-08-10 17:05:00,
2013-08-10 13:10:00,79.3,34.8,29.97,WNW,283,0.0,4.0,20,0.00,,---,0.00,VWS V14.01,2013-08-10 17:10:00,
2013-08-10 13:15:00,77.9,33.6,29.97,WNW,287,3.6,3.6,20,0.00,,---,0.00,VWS V14.01,2013-08-10 17:15:00,
2013-08-10 13:20:00,77.9,34.9,29.97,West,276,0.0,3.6,21,0.00,,---,0.00,VWS V14.01,2013-08-10 17:20:00,
2013-08-10 13:25:00,79.0,36.9,29.97,North,6,0.0,0.0,22,0.00,,---,0.00,VWS V14.01,2013-08-10 17:25:00,
2013-08-10 13:30:00,80.4,37.0,29.97,WSW,249,3.6,3.6,21,0.00,,---,0.00,VWS V14.01,2013-08-10 17:30:00,
2013-08-10 13:35:00,81.9,38.1,29.97,NNW,342,0.0,5.4,21,0.00,,---,0.00,VWS V14.01,2013-08-10 17:35:00,
2013-08-10 13:40:00,81.7,36.8,29.97,NNE,28,4.0,4.0,20,0.00,,---,0.00,VWS V14.01,2013-08-10 17:40:00,
2013-08-10 13:45:00,81.1,36.3,29.97,West,263,6.3,6.7,20,0.00,,---,0.00,VWS V14.01,2013-08-10 17:45:00,
2013-08-10 13:50:00,81.9,36.9,29.97,West,278,0.0,5.8,20,0.00,,---,0.00,VWS V14.01,2013-08-10 17:50:00,
2013-08-10 13:55:00,81.5,36.6,29.97,SSW,207,2.7,2.7,20,0.00,,---,0.00,VWS V14.01,2013-08-10 17:55:00,
2013-08-10 14:00:00,81.7,36.8,29.97,WNW,283,0.0,3.1,20,0.00,,---,0.00,VWS V14.01,2013-08-10 18:00:00,
2013-08-10 14:05:00,81.5,36.6,29.97,SW,224,0.0,0.0,20,0.00,,---,0.00,VWS V14.01,2013-08-10 18:05:00,
2013-08-10 14:10:00,82.0,38.3,29.97,NW,318,4.0,6.9,21,0.00,,---,0.00,VWS V14.01,2013-08-10 18:10:00,
2013-08-10 14:15:00,82.0,37.0,29.97,WSW,242,3.6,5.4,20,0.00,,---,0.00,VWS V14.01,2013-08-10 18:15:00,
2013-08-10 14:20:00,81.5,36.6,29.97,WSW,257,0.0,6.7,20,0.00,,---,0.00,VWS V14.01,2013-08-10 18:20:00,
2013-08-10 14:25:00,81.5,36.6,29.97,WNW,296,0.0,4.5,20,0.00,,---,0.00,VWS V14.01,2013-08-10 18:25:00,
2013-08-10 14:30:00,81.7,35.5,29.97,West,278,6.3,6.3,19,0.00,,---,0.00,VWS V14.01,2013-08-10 18:30:00,
2013-08-10 14:35:00,81.1,36.3,29.97,SW,216,2.7,4.9,20,0.00,,---,0.00,VWS V14.01,2013-08-10 18:35:00,
2013-08-10 14:40:00,82.0,35.8,29.97,West,266,2.7,4.0,19,0.00,,---,0.00,VWS V14.01,2013-08-10 18:40:00,
2013-08-10 14:45:00,82.6,36.2,29.97,SW,220,4.5,4.9,19,0.00,,---,0.00,VWS V14.01,2013-08-10 18:45:00,
2013-08-10 14:50:00,83.1,36.6,29.97,SW,226,3.1,4.5,19,0.00,,---,0.00,VWS V14.01,2013-08-10 18:50:00,
2013-08-10 14:56:00,82.8,36.3,29.97,SW,219,4.0,4.9,19,0.00,,---,0.00,VWS V14.01,2013-08-10 18:56:00,
2013-08-10 15:01:00,82.8,36.3,29.97,SW,232,0.0,3.1,19,0.00,,---,0.00,VWS V14.01,2013-08-10 19:01:00,
2013-08-10 15:06:00,82.4,36.0,29.97,WNW,287,3.6,4.5,19,0.00,,---,0.00,VWS V14.01,2013-08-10 19:06:00,
2013-08-10 15:11:00,82.9,36.5,29.97,WSW,245,2.7,4.9,19,0.00,,---,0.00,VWS V14.01,2013-08-10 19:11:00,
2013-08-10 15:16:00,82.0,35.8,29.97,WNW,293,3.1,6.3,19,0.00,,---,0.00,VWS V14.01,2013-08-10 19:16:00,
2013-08-10 15:21:00,81.3,36.5,29.97,SW,231,3.1,3.1,20,0.00,,---,0.00,VWS V14.01,2013-08-10 19:21:00,
2013-08-10 15:26:00,81.5,36.6,29.97,SSW,205,5.4,6.9,20,0.00,,---,0.00,VWS V14.01,2013-08-10 19:26:00,
2013-08-10 15:31:00,81.3,36.5,29.97,West,273,6.7,6.7,20,0.00,,---,0.00,VWS V14.01,2013-08-10 19:31:00,
2013-08-10 15:36:00,82.6,36.2,29.97,NNW,332,4.9,9.6,19,0.00,,---,0.00,VWS V14.01,2013-08-10 19:36:00,
2013-08-10 15:41:00,82.9,36.5,29.97,SW,232,0.0,11.0,19,0.00,,---,0.00,VWS V14.01,2013-08-10 19:41:00,
2013-08-10 15:46:00,84.0,36.0,29.97,WSW,255,4.5,11.6,18,0.00,,---,0.00,VWS V14.01,2013-08-10 19:46:00,
2013-08-10 15:51:00,84.4,33.3,29.97,WSW,247,5.8,6.9,16,0.00,,---,0.00,VWS V14.01,2013-08-10 19:51:00,
2013-08-10 15:56:00,84.7,28.5,29.97,WNW,290,0.0,5.4,13,0.00,,---,0.00,VWS V14.01,2013-08-10 19:56:00,
2013-08-10 16:01:00,85.5,29.1,29.97,ENE,68,3.1,7.8,13,0.00,,---,0.00,VWS V14.01,2013-08-10 20:01:00,
2013-08-10 16:06:00,83.8,23.8,29.97,WSW,258,6.7,7.4,11,0.00,,---,0.00,VWS V14.01,2013-08-10 20:06:00,
2013-08-10 16:11:00,82.4,28.5,29.97,West,271,0.0,3.1,14,0.00,,---,0.00,VWS V14.01,2013-08-10 20:11:00,
2013-08-10 16:16:00,83.8,32.9,29.97,West,267,4.5,6.9,16,0.00,,---,0.00,VWS V14.01,2013-08-10 20:16:00,
2013-08-10 16:21:00,84.0,27.9,29.97,West,273,2.7,5.8,13,0.00,,---,0.00,VWS V14.01,2013-08-10 20:21:00,
2013-08-10 16:26:00,83.7,27.7,29.97,WSW,249,3.1,6.3,13,0.00,,---,0.00,VWS V14.01,2013-08-10 20:26:00,
2013-08-10 16:31:00,84.6,24.3,29.97,SSW,204,0.0,5.4,11,0.00,,---,0.00,VWS V14.01,2013-08-10 20:31:00,
2013-08-10 16:36:00,86.0,25.4,29.97,North,356,4.0,4.9,11,0.00,,---,0.00,VWS V14.01,2013-08-10 20:36:00,
2013-08-10 16:41:00,86.9,23.8,29.97,West,268,5.4,9.6,10,0.00,,---,0.00,VWS V14.01,2013-08-10 20:41:00,
2013-08-10 16:46:00,86.9,23.8,29.97,West,277,6.9,11.6,10,0.00,,---,0.00,VWS V14.01,2013-08-10 20:46:00,
2013-08-10 16:51:00,84.6,22.1,29.97,West,265,6.9,6.9,10,0.00,,---,0.00,VWS V14.01,2013-08-10 20:51:00,
2013-08-10 16:56:00,82.9,20.8,29.97,NNE,24,0.0,3.1,10,0.00,,---,0.00,VWS V14.01,2013-08-10 20:56:00,
2013-08-10 17:01:00,82.8,23.0,29.97,West,261,0.0,0.0,11,0.00,,---,0.00,VWS V14.01,2013-08-10 21:01:00,
2013-08-10 17:06:00,83.3,23.4,29.97,West,264,0.0,9.2,11,0.00,,---,0.00,VWS V14.01,2013-08-10 21:06:00,
2013-08-10 17:11:00,82.9,20.8,29.97,West,262,0.0,6.3,10,0.00,,---,0.00,VWS V14.01,2013-08-10 21:11:00,
2013-08-10 17:16:00,82.8,20.7,29.97,WNW,299,2.7,6.7,10,0.00,,---,0.00,VWS V14.01,2013-08-10 21:16:00,
2013-08-10 17:21:00,82.9,20.8,29.97,West,280,8.3,9.2,10,0.00,,---,0.00,VWS V14.01,2013-08-10 21:21:00,
2013-08-10 17:26:00,83.3,21.1,29.97,NNE,13,0.0,3.6,10,0.00,,---,0.00,VWS V14.01,2013-08-10 21:26:00,
2013-08-10 17:31:00,83.7,21.4,29.97,NNW,329,2.7,4.0,10,0.00,,---,0.00,VWS V14.01,2013-08-10 21:31:00,
2013-08-10 17:36:00,82.8,20.7,29.97,North,3,0.0,7.4,10,0.00,,---,0.00,VWS V14.01,2013-08-10 21:36:00,
2013-08-10 17:41:00,82.0,20.1,29.97,West,264,6.7,10.1,10,0.00,,---,0.00,VWS V14.01,2013-08-10 21:41:00,
2013-08-10 17:46:00,82.4,20.4,29.97,WNW,289,0.0,7.4,10,0.00,,---,0.00,VWS V14.01,2013-08-10 21:46:00,
2013-08-10 17:51:00,82.9,20.8,29.97,WNW,287,0.0,4.5,10,0.00,,---,0.00,VWS V14.01,2013-08-10 21:51:00,
2013-08-10 17:56:00,82.2,20.3,29.97,NNW,328,3.6,5.4,10,0.00,,---,0.00,VWS V14.01,2013-08-10 21:56:00,
2013-08-10 18:01:00,81.9,20.0,29.97,West,261,0.0,5.8,10,0.00,,---,0.00,VWS V14.01,2013-08-10 22:01:00,
2013-08-10 18:06:00,82.2,22.5,29.97,WNW,298,0.0,0.0,11,0.00,,---,0.00,VWS V14.01,2013-08-10 22:06:00,
2013-08-10 18:11:00,81.9,20.0,29.97,NE,50,0.0,4.9,10,0.00,,---,0.00,VWS V14.01,2013-08-10 22:11:00,
2013-08-10 18:17:00,81.5,19.7,29.97,NW,315,0.0,6.9,10,0.00,,---,0.00,VWS V14.01,2013-08-10 22:17:00,
2013-08-10 18:22:00,81.3,19.6,29.97,WSW,256,3.1,6.9,10,0.00,,---,0.00,VWS V14.01,2013-08-10 22:22:00,
2013-08-10 18:27:00,81.0,23.6,29.97,WSW,257,4.0,4.9,12,0.00,,---,0.00,VWS V14.01,2013-08-10 22:27:00,
2013-08-10 18:32:00,81.0,23.6,29.97,WNW,290,3.1,6.7,12,0.00,,---,0.00,VWS V14.01,2013-08-10 22:32:00,
2013-08-10 18:37:00,80.6,23.4,29.97,West,278,0.0,0.0,12,0.00,,---,0.00,VWS V14.01,2013-08-10 22:37:00,
2013-08-10 18:42:00,80.2,23.1,29.97,WSW,250,0.0,6.7,12,0.00,,---,0.00,VWS V14.01,2013-08-10 22:42:00,
2013-08-10 18:47:00,79.9,22.8,29.97,West,264,2.7,3.1,12,0.00,,---,0.00,VWS V14.01,2013-08-10 22:47:00,
2013-08-10 18:52:00,79.2,22.2,29.97,ENE,65,0.0,0.0,12,0.00,,---,0.00,VWS V14.01,2013-08-10 22:52:00,
2013-08-10 18:57:00,78.8,22.0,29.97,NNE,19,0.0,0.0,12,0.00,,---,0.00,VWS V14.01,2013-08-10 22:57:00,
2013-08-10 19:02:00,78.4,27.0,29.97,NNE,18,0.0,0.0,15,0.00,,---,0.00,VWS V14.01,2013-08-10 23:02:00,
2013-08-10 19:07:00,78.1,26.7,29.97,NNE,21,0.0,2.7,15,0.00,,---,0.00,VWS V14.01,2013-08-10 23:07:00,
2013-08-10 19:12:00,77.7,26.4,29.97,NNE,21,0.0,0.0,15,0.00,,---,0.00,VWS V14.01,2013-08-10 23:12:00,
2013-08-10 19:17:00,77.2,30.4,29.97,NNE,21,0.0,0.0,18,0.00,,---,0.00,VWS V14.01,2013-08-10 23:17:00,
2013-08-10 19:22:00,76.8,30.1,30.00,NNE,19,0.0,0.0,18,0.00,,---,0.00,VWS V14.01,2013-08-10 23:22:00,
2013-08-10 19:27:00,76.5,32.5,30.00,NNE,19,0.0,0.0,20,0.00,,---,0.00,VWS V14.01,2013-08-10 23:27:00,
2013-08-10 19:32:00,76.1,32.2,30.00,North,4,0.0,0.0,20,0.00,,---,0.00,VWS V14.01,2013-08-10 23:32:00,
2013-08-10 19:37:00,75.7,33.1,30.00,North,6,0.0,0.0,21,0.00,,---,0.00,VWS V14.01,2013-08-10 23:37:00,
2013-08-10 19:42:00,75.4,32.8,30.00,WNW,289,0.0,0.0,21,0.00,,---,0.00,VWS V14.01,2013-08-10 23:42:00,
2013-08-10 19:47:00,75.0,32.5,30.00,WNW,289,0.0,0.0,21,0.00,,---,0.00,VWS V14.01,2013-08-10 23:47:00,
2013-08-10 19:52:00,74.3,35.2,30.00,WNW,290,0.0,0.0,24,0.00,,---,0.00,VWS V14.01,2013-08-10 23:52:00,
2013-08-10 19:57:00,73.4,35.5,30.00,WNW,289,0.0,0.0,25,0.00,,---,0.00,VWS V14.01,2013-08-10 23:57:00,
2013-08-10 20:02:00,72.9,38.8,30.00,WNW,290,0.0,0.0,29,0.00,,---,0.00,VWS V14.01,2013-08-11 00:02:00,
2013-08-10 20:07:00,72.3,40.0,30.00,WNW,289,0.0,0.0,31,0.00,,---,0.00,VWS V14.01,2013-08-11 00:07:00,
2013-08-10 20:12:00,71.8,40.4,30.00,WNW,289,0.0,0.0,32,0.00,,---,0.00,VWS V14.01,2013-08-11 00:12:00,
2013-08-10 20:17:00,71.4,40.8,30.00,WNW,289,0.0,0.0,33,0.00,,---,0.00,VWS V14.01,2013-08-11 00:17:00,
2013-08-10 20:22:00,71.1,39.7,30.03,WNW,289,0.0,0.0,32,0.00,,---,0.00,VWS V14.01,2013-08-11 00:22:00,
2013-08-10 20:27:00,70.7,39.4,30.03,WNW,289,0.0,0.0,32,0.00,,---,0.00,VWS V14.01,2013-08-11 00:27:00,
2013-08-10 20:32:00,70.5,40.1,30.03,WNW,289,0.0,0.0,33,0.00,,---,0.00,VWS V14.01,2013-08-11 00:32:00,
2013-08-10 20:34:00,70.5,40.1,30.03,WNW,289,0.0,0.0,33,0.00,,---,0.00,VWS V14.01,2013-08-11 00:34:00,
2013-08-10 20:39:00,70.2,39.7,30.03,WNW,289,0.0,0.0,33,0.00,,---,0.00,VWS V14.01,2013-08-11 00:39:00,
2013-08-10 20:44:00,70.0,40.3,30.03,WNW,289,0.0,0.0,34,0.00,,---,0.00,VWS V14.01,2013-08-11 00:44:00,
2013-08-10 20:49:00,69.6,40.8,30.03,WNW,289,0.0,0.0,35,0.00,,---,0.00,VWS V14.01,2013-08-11 00:49:00,
2013-08-10 20:54:00,69.3,42.6,30.03,WNW,289,0.0,0.0,38,0.00,,---,0.00,VWS V14.01,2013-08-11 00:54:00,
2013-08-10 20:59:00,69.1,43.1,30.03,WNW,289,0.0,0.0,39,0.00,,---,0.00,VWS V14.01,2013-08-11 00:59:00,
2013-08-10 21:04:00,68.9,44.2,30.03,WNW,289,0.0,0.0,41,0.00,,---,0.00,VWS V14.01,2013-08-11 01:04:00,
2013-08-10 21:09:00,68.5,43.9,30.03,WNW,289,0.0,0.0,41,0.00,,---,0.00,VWS V14.01,2013-08-11 01:09:00,
2013-08-10 21:14:00,68.2,45.5,30.03,WNW,289,0.0,0.0,44,0.00,,---,0.00,VWS V14.01,2013-08-11 01:14:00,
2013-08-10 21:19:00,67.8,45.1,30.03,WNW,290,0.0,0.0,44,0.00,,---,0.00,VWS V14.01,2013-08-11 01:19:00,
2013-08-10 21:24:00,67.6,45.6,30.03,WNW,289,0.0,0.0,45,0.00,,---,0.00,VWS V14.01,2013-08-11 01:24:00,
2013-08-10 21:29:00,67.5,46.0,30.03,WNW,289,0.0,0.0,46,0.00,,---,0.00,VWS V14.01,2013-08-11 01:29:00,
2013-08-10 21:34:00,67.3,46.4,30.03,WNW,289,0.0,0.0,47,0.00,,---,0.00,VWS V14.01,2013-08-11 01:34:00,
2013-08-10 21:35:00,67.3,46.4,30.03,WNW,289,0.0,0.0,47,0.00,,---,0.00,VWS V14.01,2013-08-11 01:35:00,
2013-08-10 21:40:00,66.9,46.6,30.06,WNW,289,0.0,0.0,48,0.00,,---,0.00,VWS V14.01,2013-08-11 01:40:00,
2013-08-10 21:45:00,66.7,47.0,30.06,WNW,289,0.0,0.0,49,0.00,,---,0.00,VWS V14.01,2013-08-11 01:45:00,
2013-08-10 21:50:00,66.7,47.0,30.06,WNW,289,0.0,0.0,49,0.00,,---,0.00,VWS V14.01,2013-08-11 01:50:00,
2013-08-10 21:55:00,66.6,46.3,30.06,WNW,289,0.0,0.0,48,0.00,,---,0.00,VWS V14.01,2013-08-11 01:55:00,
2013-08-10 22:00:00,66.4,46.1,30.06,WNW,289,0.0,0.0,48,0.00,,---,0.00,VWS V14.01,2013-08-11 02:00:00,
2013-08-10 22:05:00,66.2,46.0,30.06,WNW,289,0.0,0.0,48,0.00,,---,0.00,VWS V14.01,2013-08-11 02:05:00,
2013-08-10 22:10:00,66.2,46.5,30.06,WNW,289,0.0,0.0,49,0.00,,---,0.00,VWS V14.01,2013-08-11 02:10:00,
2013-08-10 22:15:00,66.0,46.3,30.06,WNW,289,0.0,0.0,49,0.00,,---,0.00,VWS V14.01,2013-08-11 02:15:00,
2013-08-10 22:20:00,65.8,46.7,30.06,WNW,289,0.0,0.0,50,0.00,,---,0.00,VWS V14.01,2013-08-11 02:20:00,
2013-08-10 22:25:00,65.5,46.9,30.06,WNW,289,0.0,0.0,51,0.00,,---,0.00,VWS V14.01,2013-08-11 02:25:00,
2013-08-10 22:30:00,65.3,47.2,30.06,WNW,289,0.0,0.0,52,0.00,,---,0.00,VWS V14.01,2013-08-11 02:30:00,
2013-08-10 22:35:00,65.1,47.6,30.06,WNW,289,0.0,0.0,53,0.00,,---,0.00,VWS V14.01,2013-08-11 02:35:00,
2013-08-10 22:40:00,64.9,47.4,30.06,WNW,289,0.0,0.0,53,0.00,,---,0.00,VWS V14.01,2013-08-11 02:40:00,
2013-08-10 22:45:00,64.8,47.2,30.06,WNW,289,0.0,0.0,53,0.00,,---,0.00,VWS V14.01,2013-08-11 02:45:00,
2013-08-10 22:50:00,64.8,47.2,30.06,WNW,289,0.0,0.0,53,0.00,,---,0.00,VWS V14.01,2013-08-11 02:50:00,
2013-08-10 22:55:00,64.6,47.1,30.06,WNW,290,0.0,0.0,53,0.00,,---,0.00,VWS V14.01,2013-08-11 02:55:00,
2013-08-10 23:01:00,64.4,47.4,30.06,WNW,289,0.0,0.0,54,0.00,,---,0.00,VWS V14.01,2013-08-11 03:01:00,
2013-08-10 23:06:00,64.2,47.2,30.06,WNW,289,0.0,0.0,54,0.00,,---,0.00,VWS V14.01,2013-08-11 03:06:00,
2013-08-10 23:11:00,64.0,47.1,30.06,WNW,289,0.0,0.0,54,0.00,,---,0.00,VWS V14.01,2013-08-11 03:11:00,
2013-08-10 23:16:00,63.9,47.9,30.06,WNW,289,0.0,0.0,56,0.00,,---,0.00,VWS V14.01,2013-08-11 03:16:00,
2013-08-10 23:21:00,63.7,48.6,30.06,WNW,289,0.0,0.0,58,0.00,,---,0.00,VWS V14.01,2013-08-11 03:21:00,
2013-08-10 23:26:00,63.5,48.9,30.06,WNW,289,0.0,0.0,59,0.00,,---,0.00,VWS V14.01,2013-08-11 03:26:00,
2013-08-10 23:32:00,63.5,49.8,30.06,WNW,289,0.0,0.0,61,0.00,,---,0.00,VWS V14.01,2013-08-11 03:32:00,
2013-08-10 23:37:00,63.3,50.1,30.06,WNW,289,0.0,0.0,62,0.00,,---,0.00,VWS V14.01,2013-08-11 03:37:00,
2013-08-10 23:42:00,63.1,50.3,30.06,WNW,289,0.0,0.0,63,0.00,,---,0.00,VWS V14.01,2013-08-11 03:42:00,
2013-08-10 23:47:00,63.1,50.3,30.06,WNW,289,0.0,0.0,63,0.00,,---,0.00,VWS V14.01,2013-08-11 03:47:00,
2013-08-10 23:52:00,63.0,50.2,30.06,WNW,290,0.0,0.0,63,0.00,,---,0.00,VWS V14.01,2013-08-11 03:52:00,
2013-08-10 23:57:00,63.0,50.6,30.06,WNW,289,0.0,0.0,64,0.00,,---,0.00,VWS V14.01,2013-08-11 03:57:00,